Terminal Aerodrome Forecast
Issued by NWS

Home | Current Version | Previous Version | Text Only | Print | Product List | Glossary On
Versions: 1 2 3 4 5 6 7 8 9 10 11 12 13 14 15 16 17 18 19 20 21 22 23 24
000
FTUS44 KBMX 032342
TAFMGM
TAF
KMGM 032342Z 0400/0424 28007KT P6SM FEW035 BKN060
     FM040400 29005KT P6SM SCT060 SCT120
     FM041400 32007KT P6SM SKC
     FM041800 29013G23KT P6SM SCT050=

USA.gov is the U.S. government's official web portal to all federal, state and local government web resources and services.